Current Conditions
Partly Cloudy
Conditions



Pressure
992.92 (hPa) - 29.32 (inHG)
Visibility

10.0 (km) - 6.2 (miles)
   Temperature
6  °C
43°F
2  °C
Dewpoint
76  %
 Humidity
   Wind Speed
24  km/h
13  kts
15  mph
6.7  m/s
   Wind Direction
 240°
West South
West
   Airport Data
EHAM
Location Amsterdam Airport Schiphol 20 km (12.43 mi)
Metar :EHAM 221525Z 24013KT 9999 FEW021 06/02 Q0993 NOSIG
Fri 22nd January 17:25 pm
   Raw Metar Info
Raw METAR is the most common format in the world for the transmission of observational weather data. It is highly standardized through the International Civil Aviation Organization (ICAO), which allows it to be understood throughout most of the world.
   API Info
Data Provided by
https://www.checkwx.com/weather/EHAM
   © Info
CSS/SVG/PHP scripts were developed by weather34.com for use in the weather34 template © 2015-2021

Guide Info provided by Metar-Wikipedia